aviador You're here:

KARA Decoded Metar

LOUISIANA in LA, USA
Report Time2017-10-17 19:53:00
UTC Time2017-10-17 20:28:10
Flight Rules vfr VFR
Wind050° at 07 kt
W.Decomp.*RWY 34: 2.7 kt HW 6.4 kt RCW
W.Rank050° ranks 15
Current wind is below 050° avg. (7.0)
Visibility9999 m
Phenomena:N/A
Clouds:N/A
Expected CloudBase > 6,800 ft AGL from Temp-Dew spread
CeilingNone
Temp25°C (ISA +10)
Dew Point08°C (34% RH)
AAT22.0°C
QNH1021 hPa
Density Alt1,109 ft
Elevation59 ft
Report Wrong Elevation
Raw Report
KARA 171953Z 05007KT 10SM CLR 25/08 A3015 RMK AO2 SLP208
T02500078=

Extra information for KARA:More info

Metar Taf Metar & Taf Last 4 Metars F.Rules Stats Wind Profile Meteogram Temp Stats Airport Information Weather charts Add Link Nearby VenuesMetar ALERT Operation Metar Decoded Social comments

AIRNAV info for KARA